Garcia del Cid — EHUU — position and weather

sailwx.info

Track history (hours):
 
Tides and Currents Weather Stations Pressure Air Temp Water Temp Dewpoint Dewpoint Depression Visibility Wind Speed Wind Dir Waves Ship Positions

Oceanographic research ship Garcia del Cid (Spain)

Detailed information on ship capabilities available from University of Delaware's Ocean Information Center.

Last reported at 2020-Jul-17 05:31 UTC. Time now 2020-Sep-20 00:37 UTC.
Position N 42°14' W 008°48'.
Warning: this ship's position is months out of date.

Length 30 m; draft 4.8 m.

Type: Dredging. MMSI: 224799000.

Date/timePositionNaut miles runAvg speedWind from/ knotsBaromVisibWave heightAir tempDewpointWater temp
2020-Jul-17 05:31N 42°14' W 008°48'163 7.3
2020-Jul-16 07:14N 39°36' W 009°38'25 7.7
2020-Jul-16 04:00N 39°12' W 009°46'8 7.5
2020-Jul-16 03:00N 39°04' W 009°48'4 7.5
2020-Jul-16 02:30N 39°01' W 009°48'21 7.1
2020-Jul-15 23:30N 38°39' W 009°48'7 6.9
2020-Jul-15 22:30N 38°33' W 009°45'7 7.0
2020-Jul-15 21:30N 38°27' W 009°40'4 7.1
2020-Jul-15 21:00N 38°24' W 009°38'65 7.3
2020-Jul-15 12:00N 37°19' W 009°24'12 7.5
2020-Jul-15 10:21N 37°07' W 009°23'42 6.4
2020-Jul-15 03:49N 36°42' W 008°41'26 7.4
2020-Jul-15 00:18N 36°39' W 008°09'6 7.1
2020-Jul-14 23:30N 36°38' W 008°02'9 3.2
2020-Jul-14 20:46N 36°38' W 007°51'1 1.3
2020-Jul-14 20:01N 36°39' W 007°50'2 1.3
2020-Jul-14 18:23N 36°41' W 007°50'3 1.4
2020-Jul-14 16:00N 36°44' W 007°52'0 0.6
2020-Jul-14 15:15N 36°43' W 007°52'1 0.8
2020-Jul-14 13:55N 36°44' W 007°53'1 2.1
2020-Jul-14 13:30N 36°43' W 007°54'11 1.8
2020-Jul-14 07:00N 36°47' W 008°08'1 1.5
2020-Jul-14 06:30N 36°47' W 008°07'5 3.3
2020-Jul-14 05:00N 36°47' W 008°01'2 1.5
2020-Jul-14 03:30N 36°47' W 008°04'5 4.7
2020-Jul-14 02:30N 36°46' W 008°10'5 5.0
2020-Jul-14 01:30N 36°46' W 008°16'5 5.3
2020-Jul-14 00:30N 36°46' W 008°23'10 1.5
2020-Jul-13 17:53N 36°35' W 008°23'7 7.8
2020-Jul-13 17:00N 36°33' W 008°15'29 8.0
2020-Jul-13 13:25N 36°25' W 007°41'3 7.9
2020-Jul-13 13:00N 36°24' W 007°37'161 5.0
2020-Jul-12 05:00N 36°40' W 004°17'0 0.1
2020-Jul-12 01:30N 36°40' W 004°17'2 1.0
2020-Jul-11 23:43N 36°40' W 004°15'8 2.6
2020-Jul-11 20:50N 36°35' W 004°22'42 7.9
2020-Jul-11 15:30N 36°18' W 005°10'5 0.4
2020-Jul-11 03:30N 36°12' W 005°10'3 6.1
2020-Jul-11 03:00N 36°14' W 005°07'3 6.9
2020-Jul-11 02:30N 36°17' W 005°04'4 8.0
2020-Jul-11 02:00N 36°19' W 004°60'14 1.1
2020-Jul-10 13:18N 36°28' W 004°46'1 0.9
2020-Jul-10 11:59N 36°28' W 004°45'0 0.3
2020-Jul-10 10:51N 36°28' W 004°44'7 2.7
2020-Jul-10 08:13N 36°21' W 004°45'18 2.2
2020-Jul-10 00:11N 36°23' W 005°07'1 0.2
2020-Jul-09 20:00N 36°23' W 005°07'5 1.3
2020-Jul-09 16:00N 36°19' W 005°10'4 3.6
2020-Jul-09 15:00N 36°17' W 005°14'1 1.4
2020-Jul-09 14:00N 36°16' W 005°15'6 4.1
2020-Jul-09 12:30N 36°15' W 005°08'2 4.1
2020-Jul-09 12:00N 36°14' W 005°05'0 0.9
2020-Jul-09 11:29N 36°15' W 005°05'43 2.0
2020-Jul-08 13:58N 36°42' W 004°24'0 0.2
2020-Jul-08 12:59N 36°42' W 004°24'1 2.3
2020-Jul-08 12:29N 36°41' W 004°23'14 1.9
2020-Jul-08 05:30N 36°31' W 004°12'9 3.6
2020-Jul-08 03:00N 36°38' W 004°06'4 1.0
2020-Jul-07 23:00N 36°42' W 004°03'0 0.3
2020-Jul-07 22:00N 36°42' W 004°03'0 0.3
2020-Jul-07 20:30N 36°42' W 004°03'0 0.1
2020-Jul-07 18:30N 36°42' W 004°03'8 2.9
2020-Jul-07 15:47N 36°34' W 004°04'1 1.4
2020-Jul-07 15:00N 36°34' W 004°03'10 8.3
2020-Jul-07 13:48N 36°36' W 003°51'10 8.3
2020-Jul-07 12:33N 36°39' W 003°38'8 4.9
2020-Jul-07 10:55N 36°40' W 003°28'5 1.6
2020-Jul-07 07:30N 36°35' W 003°28'  
Track history (hours):
 
Tides and Currents Weather Stations Pressure Air Temp Water Temp Dewpoint Dewpoint Depression Visibility Wind Speed Wind Dir Waves Ship Positions

Oceanographic research ship Garcia del Cid (Spain)

Detailed information on ship capabilities available from University of Delaware's Ocean Information Center.

Last reported at 2020-Jul-17 05:31 UTC. Time now 2020-Sep-20 00:37 UTC.
Position N 42°14' W 008°48'.
Warning: this ship's position is months out of date.

Length 30 m; draft 4.8 m.

Type: Dredging. MMSI: 224799000.

Date/timePositionNaut miles runAvg speedWind from/ knotsBaromVisibWave heightAir tempDewpointWater temp
2020-Jul-17 05:31N 42°14' W 008°48'163 7.3
2020-Jul-16 07:14N 39°36' W 009°38'25 7.7
2020-Jul-16 04:00N 39°12' W 009°46'8 7.5
2020-Jul-16 03:00N 39°04' W 009°48'4 7.5
2020-Jul-16 02:30N 39°01' W 009°48'21 7.1
2020-Jul-15 23:30N 38°39' W 009°48'7 6.9
2020-Jul-15 22:30N 38°33' W 009°45'7 7.0
2020-Jul-15 21:30N 38°27' W 009°40'4 7.1
2020-Jul-15 21:00N 38°24' W 009°38'65 7.3
2020-Jul-15 12:00N 37°19' W 009°24'12 7.5
2020-Jul-15 10:21N 37°07' W 009°23'42 6.4
2020-Jul-15 03:49N 36°42' W 008°41'26 7.4
2020-Jul-15 00:18N 36°39' W 008°09'6 7.1
2020-Jul-14 23:30N 36°38' W 008°02'9 3.2
2020-Jul-14 20:46N 36°38' W 007°51'1 1.3
2020-Jul-14 20:01N 36°39' W 007°50'2 1.3
2020-Jul-14 18:23N 36°41' W 007°50'3 1.4
2020-Jul-14 16:00N 36°44' W 007°52'0 0.6
2020-Jul-14 15:15N 36°43' W 007°52'1 0.8
2020-Jul-14 13:55N 36°44' W 007°53'1 2.1
2020-Jul-14 13:30N 36°43' W 007°54'11 1.8
2020-Jul-14 07:00N 36°47' W 008°08'1 1.5
2020-Jul-14 06:30N 36°47' W 008°07'5 3.3
2020-Jul-14 05:00N 36°47' W 008°01'2 1.5
2020-Jul-14 03:30N 36°47' W 008°04'5 4.7
2020-Jul-14 02:30N 36°46' W 008°10'5 5.0
2020-Jul-14 01:30N 36°46' W 008°16'5 5.3
2020-Jul-14 00:30N 36°46' W 008°23'10 1.5
2020-Jul-13 17:53N 36°35' W 008°23'7 7.8
2020-Jul-13 17:00N 36°33' W 008°15'29 8.0
2020-Jul-13 13:25N 36°25' W 007°41'3 7.9
2020-Jul-13 13:00N 36°24' W 007°37'161 5.0
2020-Jul-12 05:00N 36°40' W 004°17'0 0.1
2020-Jul-12 01:30N 36°40' W 004°17'2 1.0
2020-Jul-11 23:43N 36°40' W 004°15'8 2.6
2020-Jul-11 20:50N 36°35' W 004°22'42 7.9
2020-Jul-11 15:30N 36°18' W 005°10'5 0.4
2020-Jul-11 03:30N 36°12' W 005°10'3 6.1
2020-Jul-11 03:00N 36°14' W 005°07'3 6.9
2020-Jul-11 02:30N 36°17' W 005°04'4 8.0
2020-Jul-11 02:00N 36°19' W 004°60'14 1.1
2020-Jul-10 13:18N 36°28' W 004°46'1 0.9
2020-Jul-10 11:59N 36°28' W 004°45'0 0.3
2020-Jul-10 10:51N 36°28' W 004°44'7 2.7
2020-Jul-10 08:13N 36°21' W 004°45'18 2.2
2020-Jul-10 00:11N 36°23' W 005°07'1 0.2
2020-Jul-09 20:00N 36°23' W 005°07'5 1.3
2020-Jul-09 16:00N 36°19' W 005°10'4 3.6
2020-Jul-09 15:00N 36°17' W 005°14'1 1.4
2020-Jul-09 14:00N 36°16' W 005°15'6 4.1
2020-Jul-09 12:30N 36°15' W 005°08'2 4.1
2020-Jul-09 12:00N 36°14' W 005°05'0 0.9
2020-Jul-09 11:29N 36°15' W 005°05'43 2.0
2020-Jul-08 13:58N 36°42' W 004°24'0 0.2
2020-Jul-08 12:59N 36°42' W 004°24'1 2.3
2020-Jul-08 12:29N 36°41' W 004°23'14 1.9
2020-Jul-08 05:30N 36°31' W 004°12'9 3.6
2020-Jul-08 03:00N 36°38' W 004°06'4 1.0
2020-Jul-07 23:00N 36°42' W 004°03'0 0.3
2020-Jul-07 22:00N 36°42' W 004°03'0 0.3
2020-Jul-07 20:30N 36°42' W 004°03'0 0.1
2020-Jul-07 18:30N 36°42' W 004°03'8 2.9
2020-Jul-07 15:47N 36°34' W 004°04'1 1.4
2020-Jul-07 15:00N 36°34' W 004°03'10 8.3
2020-Jul-07 13:48N 36°36' W 003°51'10 8.3
2020-Jul-07 12:33N 36°39' W 003°38'8 4.9
2020-Jul-07 10:55N 36°40' W 003°28'5 1.6
2020-Jul-07 07:30N 36°35' W 003°28'  

Dump ship's entire track history